Time;durP1;ratioP1;P1;durP2;ratioP2;P2;SDS_P1;SDS_P2;PMS_P1;PMS_P2;Temp;Humidity;BMP_temperature;BMP_pressure;BME280_temperature;BME280_humidity;BME280_pressure;Samples;Min_cycle;Max_cycle;Signal;HPM_P1;HPM_P2
2021/05/20 00:00:14;;;;;;;26.83;17.35;;;359.10;2329.60;;;;;;5033230;28;20052;-77
2021/05/20 00:02:39;;;;;;;27.55;17.70;;;359.20;2329.60;;;;;;5030925;28;20095;-77
2021/05/20 00:05:06;;;;;;;24.20;17.25;;;359.20;2329.60;;;;;;5032920;28;20454;-77
2021/05/20 00:07:33;;;;;;;24.42;16.95;;;359.20;2329.60;;;;;;5032752;28;20037;-76
2021/05/20 00:09:59;;;;;;;25.73;17.77;;;359.30;2329.60;;;;;;5015373;28;20024;-77
2021/05/20 00:12:25;;;;;;;19.73;15.00;;;359.30;2329.60;;;;;;5032850;28;20017;-77
2021/05/20 00:14:51;;;;;;;22.20;15.40;;;359.30;2329.60;;;;;;5032690;28;20021;-76
2021/05/20 00:17:17;;;;;;;18.27;14.20;;;384.00;2329.60;;;;;;5032838;28;20096;-76
2021/05/20 00:19:43;;;;;;;16.52;13.60;;;359.30;2329.60;;;;;;5032360;28;20105;-76
2021/05/20 00:22:09;;;;;;;17.45;13.50;;;359.30;2329.60;;;;;;5032726;28;20025;-76
2021/05/20 00:24:34;;;;;;;19.95;14.80;;;359.30;2329.60;;;;;;5032445;28;20029;-76
2021/05/20 00:27:00;;;;;;;17.80;13.75;;;359.20;2329.60;;;;;;5032868;28;20017;-76
2021/05/20 00:29:26;;;;;;;16.95;13.02;;;359.30;2329.60;;;;;;5032372;28;20052;-76
2021/05/20 00:31:52;;;;;;;20.85;14.27;;;359.20;2329.60;;;;;;5013767;28;20041;-76
2021/05/20 00:34:17;;;;;;;17.50;13.65;;;359.20;2329.60;;;;;;5032210;28;20064;-76
2021/05/20 00:36:43;;;;;;;19.58;12.35;;;359.20;2329.60;;;;;;5031868;28;20124;-76
2021/05/20 00:39:09;;;;;;;18.35;13.55;;;359.20;2329.60;;;;;;5032644;28;20187;-77
2021/05/20 00:41:35;;;;;;;23.02;14.70;;;359.20;2329.60;;;;;;5032196;28;20022;-76
2021/05/20 00:44:00;;;;;;;31.08;17.63;;;359.20;2329.60;;;;;;5032334;28;20029;-76
2021/05/20 00:46:26;;;;;;;43.00;20.95;;;359.20;2329.60;;;;;;5032146;28;20022;-77
2021/05/20 00:48:52;;;;;;;47.10;23.48;;;359.10;2329.60;;;;;;5032116;28;20017;-76
2021/05/20 00:51:17;;;;;;;36.00;19.90;;;359.00;2329.60;;;;;;5031971;28;20465;-76
2021/05/20 00:53:46;;;;;;;19.13;13.55;;;359.10;2329.60;;;;;;5032219;28;20029;-76
2021/05/20 00:56:13;;;;;;;18.25;12.63;;;359.10;2329.60;;;;;;5031863;28;20025;-76
2021/05/20 00:58:42;;;;;;;17.15;11.60;;;359.10;2329.60;;;;;;5031767;28;20103;-76
2021/05/20 01:01:09;;;;;;;15.75;11.93;;;359.10;2329.60;;;;;;5032013;28;20014;-77
2021/05/20 01:03:35;;;;;;;13.95;11.13;;;359.10;2329.60;;;;;;5031891;28;20112;-76
2021/05/20 01:06:00;;;;;;;16.27;11.90;;;359.10;2329.60;;;;;;5032217;28;20104;-77
2021/05/20 01:08:27;;;;;;;15.80;12.32;;;359.20;2329.60;;;;;;5014149;28;20406;-76
2021/05/20 01:10:53;;;;;;;15.95;12.27;;;359.10;2329.60;;;;;;5031649;28;20021;-76
2021/05/20 01:13:21;;;;;;;21.35;13.63;;;359.10;2329.60;;;;;;5031674;28;20018;-76
2021/05/20 01:15:47;;;;;;;14.43;11.38;;;359.10;2329.60;;;;;;5031280;28;20027;-76
2021/05/20 01:18:13;;;;;;;18.33;12.98;;;359.10;2329.60;;;;;;5031595;28;20033;-76
2021/05/20 01:20:40;;;;;;;21.05;12.75;;;359.10;2329.60;;;;;;5032192;28;20450;-77
2021/05/20 01:23:12;;;;;;;17.50;14.00;;;359.00;2329.60;;;;;;5031318;28;20021;-76
2021/05/20 01:25:39;;;;;;;20.77;13.00;;;359.00;2329.60;;;;;;5031669;28;20389;-77
2021/05/20 01:28:09;;;;;;;15.45;11.45;;;359.00;2329.60;;;;;;5031654;28;20040;-77
2021/05/20 01:30:36;;;;;;;17.13;12.30;;;359.10;2329.60;;;;;;5010771;28;20389;-76
2021/05/20 01:33:03;;;;;;;19.60;14.13;;;359.10;2329.60;;;;;;5013812;28;20033;-77
2021/05/20 01:35:29;;;;;;;17.20;12.25;;;359.00;2329.60;;;;;;5031252;28;20101;-76
2021/05/20 01:41:03;;;;;;;23.30;12.52;;;359.10;2329.60;;;;;;5029584;28;20029;-76
2021/05/20 01:43:30;;;;;;;16.48;11.90;;;359.00;2329.60;;;;;;5031200;28;20096;-76
2021/05/20 01:46:04;;;;;;;15.07;11.90;;;359.00;2329.60;;;;;;5031047;28;20477;-76
2021/05/20 01:48:38;;;;;;;14.48;11.35;;;358.90;2329.60;;;;;;5006932;28;20026;-76
2021/05/20 01:51:06;;;;;;;15.13;11.68;;;358.90;2329.60;;;;;;5029278;28;20067;-76
2021/05/20 01:53:33;;;;;;;27.33;12.35;;;358.80;2329.60;;;;;;5029632;28;20043;-77
2021/05/20 01:55:59;;;;;;;17.48;11.85;;;358.80;2329.60;;;;;;5030926;28;20022;-77
2021/05/20 01:58:25;;;;;;;15.02;12.20;;;358.90;2329.60;;;;;;5031635;28;20450;-76
2021/05/20 02:00:51;;;;;;;18.30;13.45;;;358.90;2329.60;;;;;;5030766;28;20028;-78
2021/05/20 02:03:18;;;;;;;17.60;13.65;;;358.90;2329.60;;;;;;5031024;28;20018;-76
2021/05/20 02:05:44;;;;;;;16.83;11.85;;;358.90;2329.60;;;;;;5031283;28;20090;-76
2021/05/20 02:08:10;;;;;;;16.27;12.40;;;358.90;2329.60;;;;;;5031021;28;20108;-78
2021/05/20 02:10:35;;;;;;;16.38;12.77;;;359.00;2329.60;;;;;;5031042;28;20029;-77
2021/05/20 02:13:01;;;;;;;19.40;14.23;;;358.80;2329.60;;;;;;5030857;28;20029;-76
2021/05/20 02:15:27;;;;;;;16.33;12.73;;;358.90;2329.60;;;;;;5030930;28;20018;-76
2021/05/20 02:17:55;;;;;;;19.17;14.50;;;358.90;2329.60;;;;;;5030732;28;20533;-76
2021/05/20 02:20:22;;;;;;;17.27;12.88;;;358.80;2329.60;;;;;;5028609;28;20454;-76
2021/05/20 02:22:49;;;;;;;18.45;14.05;;;358.90;2329.60;;;;;;5030642;28;20028;-75
2021/05/20 02:25:16;;;;;;;19.05;13.75;;;358.80;2329.60;;;;;;5030824;28;20461;-76
2021/05/20 02:27:42;;;;;;;21.65;14.20;;;358.60;2329.60;;;;;;5031547;28;20055;-75
2021/05/20 02:30:09;;;;;;;26.02;13.73;;;358.80;2329.60;;;;;;5035036;28;20468;-76
2021/05/20 02:32:34;;;;;;;17.77;12.68;;;358.80;2329.60;;;;;;5034783;28;20108;-76
2021/05/20 02:35:00;;;;;;;17.77;13.70;;;358.80;2329.60;;;;;;5034702;28;20109;-76
2021/05/20 02:37:26;;;;;;;18.40;13.63;;;358.90;2329.60;;;;;;5034623;28;20045;-76
2021/05/20 02:39:52;;;;;;;16.40;12.80;;;358.90;2329.60;;;;;;5034502;28;20491;-76
2021/05/20 02:42:17;;;;;;;20.38;13.38;;;358.90;2329.60;;;;;;5034769;28;20508;-76
2021/05/20 02:44:43;;;;;;;17.52;12.05;;;358.90;2329.60;;;;;;5034254;28;20021;-76
2021/05/20 02:47:09;;;;;;;20.73;12.40;;;358.90;2329.60;;;;;;5034494;28;20028;-76
2021/05/20 02:49:35;;;;;;;18.05;13.88;;;358.80;2329.60;;;;;;5034477;28;20026;-76
2021/05/20 02:52:00;;;;;;;18.17;13.38;;;358.80;2329.60;;;;;;5034497;28;20018;-76
2021/05/20 02:54:26;;;;;;;18.70;13.55;;;358.80;2329.60;;;;;;5034320;28;20015;-76
2021/05/20 02:56:52;;;;;;;19.52;13.77;;;358.80;2329.60;;;;;;5016451;28;20393;-76
2021/05/20 02:59:17;;;;;;;16.13;13.02;;;358.80;2329.60;;;;;;5034297;28;20060;-76
2021/05/20 03:01:46;;;;;;;17.60;13.27;;;358.80;2329.60;;;;;;5033182;28;20428;-76
2021/05/20 03:04:12;;;;;;;16.42;12.98;;;358.70;2329.60;;;;;;5034105;28;20025;-76
2021/05/20 03:06:39;;;;;;;21.13;14.38;;;358.70;2329.60;;;;;;5034071;28;20462;-76
2021/05/20 03:09:08;;;;;;;20.15;13.95;;;358.70;2329.60;;;;;;5034230;28;20029;-77
2021/05/20 03:11:34;;;;;;;19.83;14.65;;;358.60;2329.60;;;;;;5034069;28;20041;-76
2021/05/20 03:14:00;;;;;;;23.98;15.88;;;358.60;2329.60;;;;;;5033946;28;20462;-76
2021/05/20 03:16:26;;;;;;;20.15;13.50;;;358.60;2329.60;;;;;;5034247;28;20032;-76
2021/05/20 03:18:52;;;;;;;19.15;13.50;;;358.60;2329.60;;;;;;5033769;28;20033;-76
2021/05/20 03:21:18;;;;;;;20.55;13.52;;;358.60;2329.60;;;;;;5033250;28;20028;-76
2021/05/20 03:23:43;;;;;;;17.58;13.52;;;358.50;2329.60;;;;;;5033730;28;20108;-77
2021/05/20 03:26:09;;;;;;;15.18;12.25;;;358.50;2329.60;;;;;;5033780;28;20018;-76
2021/05/20 03:28:35;;;;;;;15.30;11.93;;;358.50;2329.60;;;;;;5034194;28;20421;-76
2021/05/20 03:31:01;;;;;;;22.02;11.77;;;358.50;2329.60;;;;;;5033867;28;20088;-77
2021/05/20 03:33:27;;;;;;;20.88;11.20;;;358.60;2329.60;;;;;;5033514;28;20017;-76
2021/05/20 03:35:56;;;;;;;17.45;12.02;;;358.50;2329.60;;;;;;5012607;28;20477;-76
2021/05/20 03:38:21;;;;;;;14.98;11.27;;;358.60;2329.60;;;;;;5032846;28;20033;-76
2021/05/20 03:40:47;;;;;;;16.83;12.35;;;358.60;2329.60;;;;;;5033955;28;20031;-76
2021/05/20 03:43:13;;;;;;;16.02;10.93;;;358.50;2329.60;;;;;;5033663;28;20028;-77
2021/05/20 03:45:38;;;;;;;15.93;12.05;;;358.60;2329.60;;;;;;5033534;28;20092;-77
2021/05/20 03:48:05;;;;;;;17.45;11.85;;;358.60;2329.60;;;;;;5033668;28;20025;-76
2021/05/20 03:50:30;;;;;;;16.88;10.77;;;358.70;2329.60;;;;;;5015423;28;20025;-75
2021/05/20 03:52:59;;;;;;;16.25;12.65;;;358.70;2329.60;;;;;;5033265;28;20033;-76
2021/05/20 03:55:25;;;;;;;17.08;11.93;;;358.70;2329.60;;;;;;5014819;28;20435;-76
2021/05/20 03:57:51;;;;;;;17.48;12.38;;;358.70;2329.60;;;;;;5013976;28;20481;-76
2021/05/20 04:00:17;;;;;;;14.50;11.43;;;358.70;2329.60;;;;;;5033048;28;20103;-76
2021/05/20 04:02:43;;;;;;;15.45;11.90;;;358.60;2329.60;;;;;;5033064;28;20017;-76
2021/05/20 04:05:09;;;;;;;14.70;11.50;;;358.60;2329.60;;;;;;5032799;28;20092;-77
2021/05/20 04:07:35;;;;;;;19.02;11.68;;;358.80;2329.60;;;;;;5032924;28;20116;-76
2021/05/20 04:10:00;;;;;;;16.77;11.80;;;358.60;2329.60;;;;;;5032956;28;20151;-76
2021/05/20 04:12:26;;;;;;;18.25;12.05;;;358.60;2329.60;;;;;;5014568;28;20393;-77
2021/05/20 04:14:52;;;;;;;17.33;12.50;;;358.60;2329.60;;;;;;5032990;28;20025;-76
2021/05/20 04:17:17;;;;;;;15.15;11.27;;;358.50;2329.60;;;;;;5032419;28;20040;-76
2021/05/20 04:19:43;;;;;;;14.15;10.60;;;358.50;2329.60;;;;;;5032715;28;20025;-76
2021/05/20 04:22:09;;;;;;;16.70;11.25;;;358.50;2329.60;;;;;;5032540;28;20530;-77
2021/05/20 04:24:35;;;;;;;15.25;11.30;;;358.50;2329.60;;;;;;5032687;28;20424;-76
2021/05/20 04:27:02;;;;;;;16.33;11.35;;;358.50;2329.60;;;;;;5032578;28;20385;-77
2021/05/20 04:29:28;;;;;;;16.13;11.98;;;358.60;2329.60;;;;;;5032464;28;20056;-76
2021/05/20 04:31:54;;;;;;;14.23;11.00;;;358.50;2329.60;;;;;;5032374;28;20457;-77
2021/05/20 04:34:19;;;;;;;13.57;10.45;;;358.60;2329.60;;;;;;5014850;28;20024;-76
2021/05/20 04:36:45;;;;;;;14.48;9.90;;;358.60;2329.60;;;;;;5031933;28;20148;-76
2021/05/20 04:39:11;;;;;;;12.98;9.75;;;358.60;2329.60;;;;;;5032298;28;20033;-76
2021/05/20 04:41:36;;;;;;;12.32;9.68;;;358.50;2329.60;;;;;;5032682;28;20074;-76
2021/05/20 04:44:02;;;;;;;12.60;8.90;;;358.50;2329.60;;;;;;5014228;28;20067;-76
2021/05/20 04:46:28;;;;;;;13.05;8.90;;;358.40;2329.60;;;;;;5032512;28;20020;-77
2021/05/20 04:48:54;;;;;;;12.27;8.95;;;333.70;2329.60;;;;;;5032329;28;20033;-77
2021/05/20 04:51:19;;;;;;;12.60;8.27;;;358.40;2329.60;;;;;;5031287;28;20429;-76
2021/05/20 04:53:45;;;;;;;12.13;7.70;;;358.40;2329.60;;;;;;5032043;28;20079;-76
2021/05/20 04:56:11;;;;;;;11.35;9.23;;;358.40;2329.60;;;;;;5032219;28;20465;-76
2021/05/20 04:58:37;;;;;;;11.32;8.55;;;358.50;2329.60;;;;;;5031885;28;20160;-76
2021/05/20 05:01:03;;;;;;;10.32;8.60;;;358.50;2329.60;;;;;;5031989;28;20100;-76
2021/05/20 05:03:30;;;;;;;11.82;8.80;;;358.40;2329.60;;;;;;5032195;28;20036;-77
2021/05/20 05:05:56;;;;;;;12.57;8.63;;;358.50;2329.60;;;;;;5031786;28;20018;-76
2021/05/20 05:08:21;;;;;;;10.57;7.90;;;358.50;2329.60;;;;;;5031928;28;20125;-76
2021/05/20 05:10:47;;;;;;;11.07;9.18;;;358.50;2329.60;;;;;;5031729;28;20021;-75
2021/05/20 05:13:17;;;;;;;17.83;9.38;;;358.60;2329.60;;;;;;5031736;28;20028;-76
2021/05/20 05:15:42;;;;;;;11.10;8.80;;;358.50;2329.60;;;;;;5031572;28;20025;-75
2021/05/20 05:18:08;;;;;;;12.70;7.57;;;358.50;2329.60;;;;;;5031572;28;20393;-77
2021/05/20 05:20:34;;;;;;;12.90;8.90;;;358.50;2329.60;;;;;;5031554;28;20032;-75
2021/05/20 05:22:59;;;;;;;13.80;9.63;;;358.50;2329.60;;;;;;5031512;28;20029;-76
2021/05/20 05:25:25;;;;;;;10.60;8.10;;;358.50;2329.60;;;;;;5031418;28;20071;-76
2021/05/20 05:27:51;;;;;;;12.13;8.40;;;358.50;2329.60;;;;;;5030920;28;20031;-76
2021/05/20 05:30:17;;;;;;;12.00;8.57;;;358.50;2329.60;;;;;;5031260;28;20021;-75
2021/05/20 05:32:43;;;;;;;14.07;9.38;;;358.50;2329.60;;;;;;5031045;28;20025;-76
2021/05/20 05:35:09;;;;;;;14.02;8.48;;;358.60;2329.60;;;;;;5031295;28;20914;-77
2021/05/20 05:55:51;;;;;;;10.55;8.35;;;358.60;2329.60;;;;;;5114115;27;20384;-76
2021/05/20 05:58:18;;;;;;;9.40;7.45;;;359.10;2329.60;;;;;;5108271;28;20043;-75
2021/05/20 06:00:46;;;;;;;10.60;7.82;;;359.00;2329.60;;;;;;5101255;28;20013;-75
2021/05/20 06:03:12;;;;;;;10.38;7.72;;;359.00;2329.60;;;;;;5092928;28;20055;-76
2021/05/20 06:05:38;;;;;;;9.45;6.82;;;359.00;2329.60;;;;;;5099092;28;20089;-76
2021/05/20 06:08:04;;;;;;;9.50;7.90;;;358.90;2329.60;;;;;;5100279;28;20020;-75
2021/05/20 06:10:30;;;;;;;10.65;8.05;;;359.00;2329.60;;;;;;5108747;28;20028;-75
2021/05/20 06:12:56;;;;;;;10.52;7.15;;;358.90;2329.60;;;;;;5115533;28;20431;-75
2021/05/20 06:15:22;;;;;;;14.55;8.30;;;358.90;2329.60;;;;;;5113351;28;20036;-76
2021/05/20 06:17:47;;;;;;;11.57;8.43;;;359.00;2329.60;;;;;;5098000;28;20081;-75
2021/05/20 06:20:13;;;;;;;10.18;6.63;;;358.90;2329.60;;;;;;5091584;28;20039;-77
2021/05/20 06:22:39;;;;;;;9.85;7.63;;;358.90;2329.60;;;;;;5119145;28;20028;-76
2021/05/20 06:25:05;;;;;;;9.13;6.47;;;358.90;2329.60;;;;;;5088102;28;20115;-75
2021/05/20 06:27:31;;;;;;;7.85;5.82;;;358.90;2329.60;;;;;;5091209;28;20028;-75
2021/05/20 06:29:57;;;;;;;9.43;7.03;;;358.90;2329.60;;;;;;5107787;28;20020;-75
2021/05/20 06:32:24;;;;;;;7.80;5.97;;;358.90;2329.60;;;;;;5108516;28;20027;-74
2021/05/20 06:34:51;;;;;;;8.25;5.93;;;358.90;2329.60;;;;;;5108288;28;20023;-75
2021/05/20 06:37:16;;;;;;;8.13;5.72;;;358.90;2329.60;;;;;;5108408;28;20024;-74
2021/05/20 06:39:45;;;;;;;9.63;5.55;;;358.90;2329.60;;;;;;5108301;28;20404;-77
2021/05/20 06:42:12;;;;;;;7.07;5.60;;;358.90;2329.60;;;;;;5108296;28;20024;-74
2021/05/20 06:44:38;;;;;;;7.38;5.88;;;359.00;2329.60;;;;;;5107203;28;20126;-76
2021/05/20 06:47:04;;;;;;;6.85;5.18;;;358.90;2329.60;;;;;;5123963;28;20024;-76
2021/05/20 06:49:30;;;;;;;7.15;5.53;;;359.00;2329.60;;;;;;5102087;28;20023;-77
2021/05/20 06:51:56;;;;;;;6.43;4.65;;;359.10;2329.60;;;;;;5097036;28;20031;-77
2021/05/20 06:54:22;;;;;;;6.22;3.85;;;359.20;2329.60;;;;;;5089064;28;20479;-76
2021/05/20 06:56:55;;;;;;;9.73;4.78;;;359.20;2329.60;;;;;;5093869;28;20020;-76
2021/05/20 07:02:05;;;;;;;3.88;2.88;;;359.30;2329.60;;;;;;5094475;28;20420;-78
2021/05/20 07:04:31;;;;;;;3.90;2.85;;;359.30;2329.60;;;;;;5094104;28;20040;-76
2021/05/20 07:07:01;;;;;;;4.72;2.95;;;359.30;2329.60;;;;;;5088534;28;20074;-76
2021/05/20 07:09:35;;;;;;;4.47;2.97;;;359.30;2329.60;;;;;;5080091;28;20025;-76
2021/05/20 07:12:02;;;;;;;5.85;3.17;;;384.00;2329.60;;;;;;5092752;28;20024;-76
2021/05/20 07:14:28;;;;;;;3.78;2.40;;;384.30;2329.60;;;;;;5094404;28;20024;-75
2021/05/20 07:16:53;;;;;;;4.28;3.00;;;384.30;2329.60;;;;;;5093716;28;20024;-77
2021/05/20 07:19:19;;;;;;;3.75;2.75;;;384.30;2329.60;;;;;;5094260;28;20046;-76
2021/05/20 07:21:45;;;;;;;4.80;2.88;;;384.30;2329.60;;;;;;5093728;28;20043;-75
2021/05/20 07:24:11;;;;;;;7.03;2.58;;;384.40;2329.60;;;;;;5093923;28;20473;-75
2021/05/20 07:26:37;;;;;;;4.95;3.10;;;384.60;2329.60;;;;;;5082924;28;20025;-76
2021/05/20 07:29:04;;;;;;;4.50;2.42;;;384.70;2329.60;;;;;;5092777;28;20024;-75
2021/05/20 07:31:30;;;;;;;4.35;2.45;;;384.70;2329.60;;;;;;5093611;28;20024;-75
2021/05/20 07:33:56;;;;;;;4.18;2.67;;;384.70;2329.60;;;;;;5093638;28;20016;-76
2021/05/20 07:36:22;;;;;;;4.13;2.30;;;384.70;2329.60;;;;;;5093715;28;20028;-74
2021/05/20 07:38:49;;;;;;;3.85;2.17;;;384.60;2329.60;;;;;;5093598;28;20078;-74
2021/05/20 07:41:16;;;;;;;3.45;2.40;;;384.50;2329.60;;;;;;5093791;28;20024;-74
2021/05/20 07:43:42;;;;;;;3.60;2.25;;;384.70;2329.60;;;;;;5093547;28;20125;-75
2021/05/20 07:46:08;;;;;;;3.50;2.40;;;384.50;2329.60;;;;;;5093563;28;20022;-74
2021/05/20 07:48:34;;;;;;;4.60;2.55;;;384.40;2329.60;;;;;;5093021;28;20499;-75
2021/05/20 07:51:05;;;;;;;3.75;2.00;;;384.30;2329.60;;;;;;5090655;28;20020;-75
2021/05/20 07:53:31;;;;;;;4.97;2.63;;;384.20;2329.60;;;;;;5082500;28;20119;-78
2021/05/20 07:55:57;;;;;;;3.75;2.28;;;384.10;2329.60;;;;;;5077465;28;20146;-75
2021/05/20 07:58:23;;;;;;;3.65;2.55;;;384.00;2329.60;;;;;;5093444;28;20020;-77
2021/05/20 08:00:49;;;;;;;3.95;2.70;;;359.30;2329.60;;;;;;5093001;28;20028;-74
2021/05/20 08:03:29;;;;;;;4.60;3.28;;;359.30;2329.60;;;;;;5093305;28;20024;-77
2021/05/20 08:11:15;;;;;;;3.28;2.40;;;384.30;2329.60;;;;;;5093068;28;20063;-76
2021/05/20 08:13:41;;;;;;;4.22;1.80;;;384.50;2329.60;;;;;;5093002;28;20030;-74
2021/05/20 08:16:07;;;;;;;2.95;2.10;;;384.50;2329.60;;;;;;5093046;28;20016;-74
2021/05/20 08:18:33;;;;;;;4.97;2.08;;;384.40;2329.60;;;;;;5092790;28;20024;-74
2021/05/20 08:21:00;;;;;;;2.78;1.95;;;384.50;2329.60;;;;;;5092976;28;20073;-73
2021/05/20 08:23:26;;;;;;;3.55;2.10;;;384.40;2329.60;;;;;;5092778;28;20039;-74
2021/05/20 08:25:52;;;;;;;3.53;2.40;;;384.40;2329.60;;;;;;5092546;28;20415;-74
2021/05/20 08:28:18;;;;;;;3.17;2.30;;;384.50;2329.60;;;;;;5091581;28;20027;-74
2021/05/20 08:30:44;;;;;;;6.28;2.58;;;384.50;2329.60;;;;;;5091238;28;20044;-74
2021/05/20 08:33:10;;;;;;;3.83;2.40;;;384.40;2329.60;;;;;;5092349;28;20025;-75
2021/05/20 08:35:37;;;;;;;3.63;2.47;;;384.40;2329.60;;;;;;5092598;28;20028;-73
2021/05/20 08:38:04;;;;;;;3.40;1.98;;;384.50;2329.60;;;;;;5092613;28;20362;-74
2021/05/20 08:40:30;;;;;;;2.90;1.77;;;384.40;2329.60;;;;;;5092419;28;20113;-75
2021/05/20 08:42:56;;;;;;;2.60;1.85;;;384.50;2329.60;;;;;;5092687;28;20028;-77
2021/05/20 08:45:30;;;;;;;3.33;2.25;;;384.50;2329.60;;;;;;5092416;28;20089;-75
2021/05/20 08:47:57;;;;;;;4.55;2.22;;;384.60;2329.60;;;;;;5091860;28;20111;-77
2021/05/20 08:50:26;;;;;;;4.55;2.80;;;384.60;2329.60;;;;;;5092602;28;20020;-76
2021/05/20 08:52:51;;;;;;;3.33;2.08;;;384.70;2329.60;;;;;;5091861;28;20008;-74
2021/05/20 08:55:27;;;;;;;6.13;3.45;;;384.70;2329.60;;;;;;5070065;28;20386;-75
2021/05/20 08:57:55;;;;;;;4.28;2.15;;;384.70;2329.60;;;;;;5092051;28;20481;-77
2021/05/20 09:00:22;;;;;;;4.32;1.77;;;384.60;2329.60;;;;;;5092219;28;20036;-76
2021/05/20 09:02:49;;;;;;;2.60;1.50;;;384.40;2329.60;;;;;;5091476;28;20044;-76
2021/05/20 09:05:17;;;;;;;2.63;1.60;;;384.30;2329.60;;;;;;5071526;28;20040;-75
2021/05/20 09:07:52;;;;;;;2.28;1.50;;;384.20;2329.60;;;;;;5091235;28;20378;-75
2021/05/20 09:10:25;;;;;;;1.90;1.42;;;384.10;2329.60;;;;;;5088131;28;20098;-75
2021/05/20 09:13:01;;;;;;;2.42;1.70;;;384.10;2329.60;;;;;;5091321;28;20028;-75
2021/05/20 09:15:28;;;;;;;4.80;1.90;;;384.10;2329.60;;;;;;5085652;28;20023;-78
2021/05/20 09:18:01;;;;;;;3.00;1.85;;;384.10;2329.60;;;;;;5090170;28;20389;-74
2021/05/20 09:20:27;;;;;;;2.30;1.20;;;384.00;2329.60;;;;;;5090802;28;20022;-76
2021/05/20 09:23:03;;;;;;;1.70;1.20;;;384.00;2329.60;;;;;;5090696;28;20091;-74
2021/05/20 09:25:34;;;;;;;1.83;1.08;;;384.00;2329.60;;;;;;5087474;28;20036;-74
2021/05/20 09:28:00;;;;;;;2.67;1.58;;;384.00;2329.60;;;;;;5084611;28;20025;-74
2021/05/20 09:30:28;;;;;;;2.13;1.58;;;384.10;2329.60;;;;;;5086760;28;20039;-75
2021/05/20 09:33:09;;;;;;;2.40;1.55;;;384.10;2329.60;;;;;;5079849;28;20012;-76
2021/05/20 09:35:38;;;;;;;2.05;1.52;;;384.10;2329.60;;;;;;5079321;28;20075;-75
2021/05/20 09:38:22;;;;;;;1.73;1.40;;;384.20;2329.60;;;;;;5089743;28;20012;-74
2021/05/20 09:40:50;;;;;;;3.55;1.92;;;384.20;2329.60;;;;;;5090213;28;20480;-76
2021/05/20 09:43:39;;;;;;;3.03;1.67;;;384.20;2329.60;;;;;;5090475;28;20069;-74
2021/05/20 09:46:13;;;;;;;4.38;2.33;;;384.10;2329.60;;;;;;5082679;28;20048;-76
2021/05/20 09:48:41;;;;;;;3.60;2.28;;;384.10;2329.60;;;;;;5091724;28;20025;-75
2021/05/20 09:51:20;;;;;;;3.55;2.20;;;384.00;2329.60;;;;;;5073133;28;20020;-74
2021/05/20 09:53:48;;;;;;;5.28;3.95;;;384.00;2329.60;;;;;;5092108;28;20052;-75
2021/05/20 09:56:13;;;;;;;6.85;5.18;;;359.10;2329.60;;;;;;5091483;28;20484;-74
2021/05/20 09:58:39;;;;;;;7.75;5.40;;;358.80;2329.60;;;;;;5086308;28;20021;-75
2021/05/20 10:01:17;;;;;;;9.05;5.25;;;358.70;2329.60;;;;;;5083013;28;20062;-76
2021/05/20 10:03:54;;;;;;;10.07;6.03;;;358.60;2329.60;;;;;;5075856;28;20020;-75
2021/05/20 10:06:41;;;;;;;10.45;6.28;;;358.60;2329.60;;;;;;5091588;28;20041;-75
2021/05/20 10:09:12;;;;;;;8.85;6.18;;;333.70;2329.60;;;;;;5061319;28;20027;-75
2021/05/20 10:11:40;;;;;;;11.05;7.25;;;333.70;2329.60;;;;;;5075694;28;20025;-75
2021/05/20 10:14:06;;;;;;;9.15;6.78;;;333.70;2329.60;;;;;;5093933;28;20020;-75
2021/05/20 10:16:34;;;;;;;8.65;5.68;;;333.50;2329.60;;;;;;5083649;28;20015;-75
2021/05/20 10:19:00;;;;;;;11.02;6.57;;;333.60;2329.60;;;;;;5091070;28;20044;-77
2021/05/20 10:21:28;;;;;;;10.73;7.05;;;333.50;2329.60;;;;;;5084140;28;20063;-75
2021/05/20 10:23:54;;;;;;;10.35;6.25;;;333.50;2329.60;;;;;;5080292;28;20035;-77
2021/05/20 10:26:21;;;;;;;7.88;6.05;;;333.50;2329.60;;;;;;5091107;28;20416;-75
2021/05/20 10:28:47;;;;;;;9.50;6.60;;;333.50;2329.60;;;;;;5080195;28;20104;-75
2021/05/20 10:45:23;;;;;;;10.75;7.45;;;333.30;2329.60;;;;;;5131145;27;20387;-79
2021/05/20 10:48:05;;;;;;;11.30;7.90;;;358.50;2329.60;;;;;;5120482;28;20027;-84
2021/05/20 10:51:00;;;;;;;11.77;8.55;;;333.60;2329.60;;;;;;5109076;28;20030;-83
2021/05/20 10:53:58;;;;;;;18.20;9.10;;;333.50;2329.60;;;;;;5114478;28;20038;-78
2021/05/20 10:56:23;;;;;;;17.08;10.27;;;333.50;2329.60;;;;;;5021510;28;20030;-78
2021/05/20 10:58:51;;;;;;;14.55;11.10;;;333.50;2329.60;;;;;;5030500;28;20026;-79
2021/05/20 11:01:27;;;;;;;17.25;12.45;;;333.50;2329.60;;;;;;5029600;28;20059;-79
2021/05/20 11:04:03;;;;;;;20.80;15.43;;;333.40;2329.60;;;;;;5022617;28;20493;-80
2021/05/20 11:06:37;;;;;;;19.08;11.43;;;333.50;2329.60;;;;;;5030286;28;20029;-78
2021/05/20 11:09:03;;;;;;;18.13;12.25;;;333.50;2329.60;;;;;;5024972;28;20108;-80
2021/05/20 11:11:29;;;;;;;22.42;13.07;;;333.50;2329.60;;;;;;5029256;28;20045;-80
2021/05/20 11:13:56;;;;;;;19.17;13.02;;;333.50;2329.60;;;;;;5030471;28;20152;-79
2021/05/20 11:16:33;;;;;;;23.13;14.82;;;333.40;2329.60;;;;;;5031033;28;20025;-84
2021/05/20 11:19:17;;;;;;;21.45;13.63;;;333.40;2329.60;;;;;;5033552;28;20021;-81
2021/05/20 11:22:05;;;;;;;20.38;13.85;;;333.50;2329.60;;;;;;5030555;28;20052;-80
2021/05/20 11:24:38;;;;;;;18.75;14.38;;;333.60;2329.60;;;;;;5034396;28;20100;-79
2021/05/20 11:27:09;;;;;;;23.52;15.10;;;333.70;2329.60;;;;;;5044042;28;20037;-80
2021/05/20 11:29:39;;;;;;;21.48;14.02;;;333.70;2329.60;;;;;;5027199;28;20430;-82
2021/05/20 11:37:35;;;;;;;16.58;12.20;;;358.40;2329.60;;;;;;5111261;27;20023;-78
2021/05/20 11:40:02;;;;;;;15.07;12.23;;;333.70;2329.60;;;;;;5119977;28;20030;-78
2021/05/20 11:42:31;;;;;;;19.02;12.45;;;333.70;2329.60;;;;;;5127907;28;20011;-83
2021/05/20 11:45:02;;;;;;;20.52;15.07;;;333.60;2329.60;;;;;;5121515;28;20044;-79
2021/05/20 11:47:28;;;;;;;20.67;15.02;;;333.60;2329.60;;;;;;5114366;28;20024;-78
2021/05/20 11:49:54;;;;;;;17.50;12.07;;;333.60;2329.60;;;;;;5114535;28;20115;-79
2021/05/20 11:52:24;;;;;;;16.70;11.48;;;333.60;2329.60;;;;;;5114510;28;20032;-82
2021/05/20 11:54:52;;;;;;;14.65;10.32;;;333.60;2329.60;;;;;;5114228;28;20043;-79
2021/05/20 11:57:25;;;;;;;12.95;9.95;;;333.60;2329.60;;;;;;5114306;28;20027;-78
2021/05/20 11:59:55;;;;;;;14.63;9.43;;;333.60;2329.60;;;;;;5094157;28;20039;-79
2021/05/20 12:02:34;;;;;;;14.45;10.02;;;333.40;2329.60;;;;;;5090085;28;20024;-78
2021/05/20 12:05:08;;;;;;;12.80;9.23;;;333.60;2329.60;;;;;;5091048;28;20020;-78
2021/05/20 12:07:38;;;;;;;11.30;8.52;;;333.60;2329.60;;;;;;5093617;28;20024;-78
2021/05/20 12:10:14;;;;;;;11.75;8.57;;;333.70;2329.60;;;;;;5100193;28;20073;-78
2021/05/20 12:13:06;;;;;;;11.35;8.15;;;333.70;2329.60;;;;;;5113907;28;20545;-77
2021/05/20 12:15:32;;;;;;;13.63;9.73;;;333.70;2329.60;;;;;;5113792;28;20123;-82
2021/05/20 12:18:01;;;;;;;11.80;9.38;;;333.70;2329.60;;;;;;5099980;28;20062;-79
2021/05/20 12:20:29;;;;;;;13.13;9.52;;;333.70;2329.60;;;;;;5115379;28;20028;-83
2021/05/20 12:22:54;;;;;;;11.27;8.05;;;333.70;2329.60;;;;;;5100171;28;20476;-78
2021/05/20 12:25:26;;;;;;;10.40;7.57;;;358.40;2329.60;;;;;;5113525;28;20115;-77
2021/05/20 12:27:54;;;;;;;12.23;9.18;;;358.40;2329.60;;;;;;5114011;28;20464;-82
2021/05/20 12:30:27;;;;;;;13.82;9.50;;;358.40;2329.60;;;;;;5113801;28;20020;-79
2021/05/20 12:33:04;;;;;;;14.95;8.95;;;333.70;2329.60;;;;;;5113743;28;20036;-80
2021/05/20 12:35:32;;;;;;;;;;;333.70;2329.60;;;;;;5114724;28;20448;-86
2021/05/20 12:38:00;;;;;;;13.48;8.75;;;333.60;2329.60;;;;;;5113340;28;19949;-78
2021/05/20 12:40:44;;;;;;;11.20;8.13;;;333.60;2329.60;;;;;;5113716;28;20436;-80
2021/05/20 12:43:16;;;;;;;11.05;8.00;;;333.60;2329.60;;;;;;5113420;28;20047;-78
2021/05/20 12:45:44;;;;;;;15.50;8.82;;;333.50;2329.60;;;;;;5112802;28;20115;-77
2021/05/20 12:48:26;;;;;;;14.75;9.40;;;333.50;2329.60;;;;;;5113564;28;20023;-80
2021/05/20 12:50:54;;;;;;;14.98;9.95;;;333.40;2329.60;;;;;;5114628;28;20019;-78
2021/05/20 12:53:38;;;;;;;20.55;14.43;;;333.50;2329.60;;;;;;5112581;28;20044;-78
2021/05/20 12:56:24;;;;;;;19.67;15.15;;;333.40;2329.60;;;;;;5112477;28;20549;-79
2021/05/20 12:58:57;;;;;;;20.85;13.27;;;333.40;2329.60;;;;;;5105874;28;20031;-80